TLV7 LLHZ-LLHZ

Flight info

Callsign TLV7
Flight time 0h 2m
Altitude 4000
Route LSA/HELI ROUTES
Aircraft AS50/L-V/N

Departure

Time 2026-04-15 16:48
Airport Herzliya Airport (LLHZ)

Arrival

Time 2026-04-15 16:50
Airport Herzliya Airport (LLHZ)
Time Latitude Longitude Altitude Speed Heading
2026-04-15 16:31 32.59545 35.23539 186 ft 0 kts 60°
2026-04-15 16:34 32.59555 35.23535 225 ft 10 kts 344°
2026-04-15 16:35 32.59699 35.23280 208 ft 75 kts 271°
2026-04-15 16:35 32.59717 35.22514 288 ft 107 kts 274°
2026-04-15 16:35 32.59735 35.21567 361 ft 120 kts 272°
2026-04-15 16:35 32.59434 35.20705 499 ft 127 kts 221°
2026-04-15 16:36 32.58769 35.20064 460 ft 128 kts 213°
2026-04-15 16:36 32.58015 35.19457 508 ft 132 kts 213°
2026-04-15 16:36 32.57278 35.18888 800 ft 112 kts 187°
2026-04-15 16:36 32.57266 35.19092 896 ft 95 kts 256°
2026-04-15 16:37 32.56891 35.18246 746 ft 130 kts 239°
2026-04-15 16:37 32.56279 35.17391 825 ft 138 kts 230°
2026-04-15 16:37 32.55493 35.16802 939 ft 134 kts 212°
2026-04-15 16:37 32.54711 35.16154 936 ft 140 kts 208°
2026-04-15 16:38 32.53968 35.15435 1059 ft 140 kts 224°
2026-04-15 16:38 32.53229 35.14712 1068 ft 144 kts 217°
2026-04-15 16:38 32.52588 35.13805 1001 ft 150 kts 241°
2026-04-15 16:38 32.52040 35.12738 962 ft 153 kts 231°
2026-04-15 16:39 32.51296 35.11823 890 ft 156 kts 224°
2026-04-15 16:39 32.50743 35.10734 852 ft 154 kts 253°
2026-04-15 16:39 32.50530 35.09515 901 ft 138 kts 262°
2026-04-15 16:39 32.50290 35.08300 593 ft 160 kts 257°
2026-04-15 16:40 32.50093 35.07035 433 ft 155 kts 254°
2026-04-15 16:40 32.49551 35.05951 433 ft 154 kts 233°
2026-04-15 16:40 32.48853 35.04964 339 ft 157 kts 229°
2026-04-15 16:40 32.48200 35.03939 366 ft 152 kts 234°
2026-04-15 16:41 32.47550 35.02957 347 ft 150 kts 232°
2026-04-15 16:41 32.46869 35.02050 447 ft 146 kts 223°
2026-04-15 16:41 32.46105 35.01227 419 ft 151 kts 224°
2026-04-15 16:41 32.45385 35.00348 378 ft 150 kts 233°
2026-04-15 16:42 32.44705 34.99408 382 ft 153 kts 224°
2026-04-15 16:42 32.43923 34.98523 342 ft 158 kts 221°
2026-04-15 16:42 32.43133 34.97607 284 ft 156 kts 224°
2026-04-15 16:42 32.42370 34.96782 448 ft 148 kts 217°
2026-04-15 16:43 32.41517 34.96035 447 ft 152 kts 219°
2026-04-15 16:43 32.40754 34.95132 410 ft 157 kts 219°
2026-04-15 16:43 32.39890 34.94326 393 ft 157 kts 216°
2026-04-15 16:43 32.39038 34.93552 424 ft 157 kts 217°
2026-04-15 16:44 32.38133 34.92824 418 ft 160 kts 212°
2026-04-15 16:44 32.37124 34.92279 380 ft 162 kts 199°
2026-04-15 16:44 32.36053 34.91882 357 ft 161 kts 194°
2026-04-15 16:44 32.34979 34.91531 378 ft 159 kts 194°
2026-04-15 16:45 32.33934 34.91148 453 ft 155 kts 195°
2026-04-15 16:45 32.32913 34.90721 510 ft 155 kts 199°
2026-04-15 16:45 32.31911 34.90267 583 ft 154 kts 199°
2026-04-15 16:45 32.30891 34.89883 629 ft 154 kts 192°
2026-04-15 16:46 32.29849 34.89557 593 ft 159 kts 197°
2026-04-15 16:46 32.28800 34.89163 598 ft 159 kts 191°
2026-04-15 16:46 32.27723 34.88846 485 ft 163 kts 194°
2026-04-15 16:46 32.26635 34.88457 457 ft 162 kts 197°
2026-04-15 16:47 32.25616 34.87919 436 ft 162 kts 205°
2026-04-15 16:47 32.24541 34.87710 464 ft 157 kts 166°
2026-04-15 16:47 32.23468 34.87974 559 ft 147 kts 162°
2026-04-15 16:47 32.22513 34.88323 530 ft 151 kts 172°
2026-04-15 16:48 32.21471 34.88371 430 ft 149 kts 172°
2026-04-15 16:48 32.20460 34.88501 458 ft 145 kts 171°
2026-04-15 16:48 32.19478 34.88662 678 ft 144 kts 159°
2026-04-15 16:48 32.18555 34.89172 967 ft 148 kts 160°
2026-04-15 16:49 32.17528 34.89228 1173 ft 151 kts 204°
2026-04-15 16:49 32.17121 34.88188 1028 ft 149 kts 276°
2026-04-15 16:49 32.17203 34.86971 668 ft 145 kts 278°
2026-04-15 16:49 32.17515 34.85926 564 ft 127 kts 311°
2026-04-15 16:50 32.17843 34.85081 581 ft 118 kts 257°
2026-04-15 16:50 32.17804 34.84204 321 ft 96 kts 297°
2026-04-15 16:50 32.17977 34.83631 180 ft 53 kts 301°
2026-04-15 16:50 32.18086 34.83284 149 ft 32 kts 294°
2026-04-15 16:51 32.18143 34.83080 137 ft 17 kts 278°
2026-04-15 16:51 32.18169 34.82981 123 ft 7 kts 220°
2026-04-15 16:51 32.18149 34.82902 126 ft 12 kts 283°
2026-04-15 16:51 32.18153 34.82857 116 ft 4 kts 262°
2026-04-15 16:52 32.18151 34.82842 93 ft 1 kts 259°
2026-04-15 16:56 32.18152 34.82873 104 ft 6 kts 97°
2026-04-15 16:56 32.18138 34.82936 111 ft 9 kts 88°
2026-04-15 16:57 32.18210 34.82867 122 ft 53 kts 290°
2026-04-15 16:57 32.18634 34.82873 277 ft 89 kts 14°
2026-04-15 16:57 32.19328 34.83056 322 ft 110 kts 14°
2026-04-15 16:57 32.20064 34.83300 353 ft 111 kts 19°
2026-04-15 16:58 32.20780 34.83631 375 ft 111 kts 23°
2026-04-15 16:58 32.21526 34.83973 393 ft 129 kts 18°
2026-04-15 16:58 32.22424 34.84416 413 ft 148 kts 22°
2026-04-15 16:58 32.23409 34.84912 484 ft 154 kts 22°
2026-04-15 16:59 32.24454 34.85321 321 ft 166 kts 17°
2026-04-15 16:59 32.25552 34.85722 352 ft 166 kts 16°
2026-04-15 16:59 32.26680 34.86086 313 ft 169 kts 14°
2026-04-15 16:59 32.27785 34.86551 334 ft 168 kts 22°
2026-04-15 17:00 32.28917 34.86840 305 ft 170 kts
2026-04-15 17:00 32.30079 34.86909 360 ft 167 kts
2026-04-15 17:00 32.31219 34.86987 413 ft 166 kts 359°
2026-04-15 17:00 32.32351 34.87229 415 ft 166 kts 16°
2026-04-15 17:01 32.33454 34.87636 415 ft 166 kts 16°
2026-04-15 17:01 32.34591 34.87926 372 ft 170 kts 11°
2026-04-15 17:01 32.35715 34.88262 445 ft 166 kts 12°
2026-04-15 17:01 32.36859 34.88611 360 ft 170 kts 15°
2026-04-15 17:02 32.37795 34.89183 546 ft 141 kts 94°
2026-04-15 17:02 32.37286 34.88992 512 ft 131 kts 295°
2026-04-15 17:02 32.38147 34.88925 522 ft 142 kts 12°
2026-04-15 17:02 32.39175 34.89009 528 ft 155 kts 357°
2026-04-15 17:03 32.40290 34.88805 410 ft 167 kts 349°
2026-04-15 17:03 32.41440 34.88753 433 ft 167 kts
2026-04-15 17:03 32.42494 34.88349 409 ft 170 kts 307°
2026-04-15 17:03 32.43205 34.87348 477 ft 155 kts 352°
2026-04-15 17:04 32.44299 34.87552 393 ft 164 kts 10°
2026-04-15 17:04 32.45440 34.87800 405 ft 164 kts
2026-04-15 17:04 32.46585 34.87873 421 ft 167 kts
2026-04-15 17:04 32.47753 34.87972 418 ft 168 kts
2026-04-15 17:05 32.48639 34.88785 348 ft 170 kts 61°
2026-04-15 17:05 32.49074 34.90076 388 ft 166 kts 73°
2026-04-15 17:05 32.49679 34.91086 405 ft 154 kts 356°
2026-04-15 17:05 32.49602 34.90598 350 ft 103 kts 116°
2026-04-15 17:06 32.49742 34.90502 279 ft 74 kts 268°
2026-04-15 17:06 32.49773 34.90494 191 ft 46 kts 160°
2026-04-15 17:06 32.49710 34.90573 136 ft 3 kts 36°
2026-04-15 17:06 32.49708 34.90577 90 ft 0 kts 39°
2026-04-15 17:11 32.49795 34.90721 248 ft 62 kts 58°
2026-04-15 17:12 32.49752 34.90208 242 ft 96 kts 256°
2026-04-15 17:12 32.49476 34.89315 346 ft 128 kts 244°
2026-04-15 17:12 32.48785 34.88553 324 ft 149 kts 202°
2026-04-15 17:12 32.47769 34.88230 346 ft 159 kts 188°
2026-04-15 17:13 32.46648 34.87989 259 ft 166 kts 186°
2026-04-15 17:13 32.45509 34.87881 279 ft 163 kts 180°
2026-04-15 17:13 32.44373 34.87681 253 ft 166 kts 190°
2026-04-15 17:13 32.43238 34.87412 271 ft 166 kts 190°
2026-04-15 17:14 32.42108 34.87109 303 ft 166 kts 191°
2026-04-15 17:14 32.41012 34.86741 323 ft 167 kts 194°
2026-04-15 17:14 32.39859 34.86497 322 ft 167 kts 189°
2026-04-15 17:14 32.38727 34.86189 237 ft 171 kts 189°
2026-04-15 17:15 32.37568 34.85901 257 ft 163 kts 189°
2026-04-15 17:15 32.36468 34.85635 330 ft 162 kts 191°
2026-04-15 17:15 32.35343 34.85386 334 ft 163 kts 187°
2026-04-15 17:15 32.34216 34.85131 337 ft 166 kts 188°
2026-04-15 17:16 32.33088 34.84808 322 ft 168 kts 194°
2026-04-15 17:16 32.31942 34.84446 228 ft 172 kts 192°
2026-04-15 17:16 32.30805 34.84136 244 ft 166 kts 189°
2026-04-15 17:16 32.29662 34.83869 241 ft 167 kts 193°
2026-04-15 17:17 32.28556 34.83519 261 ft 168 kts 191°
2026-04-15 17:17 32.27418 34.83258 317 ft 162 kts 183°
2026-04-15 17:17 32.26289 34.82934 218 ft 168 kts 199°
2026-04-15 17:17 32.25165 34.82550 193 ft 170 kts 192°
2026-04-15 17:18 32.24020 34.82214 221 ft 167 kts 194°
2026-04-15 17:18 32.22906 34.81840 250 ft 166 kts 195°
2026-04-15 17:18 32.21794 34.81451 263 ft 167 kts 194°
2026-04-15 17:18 32.20707 34.81017 359 ft 163 kts 197°
2026-04-15 17:19 32.19614 34.80593 380 ft 166 kts 195°
2026-04-15 17:19 32.18501 34.80225 391 ft 167 kts 193°
2026-04-15 17:19 32.17400 34.79771 395 ft 168 kts 205°
2026-04-15 17:19 32.16331 34.79211 363 ft 170 kts 197°
2026-04-15 17:20 32.15161 34.79025 355 ft 169 kts 185°
2026-04-15 17:20 32.14050 34.78644 436 ft 165 kts 197°
2026-04-15 17:20 32.12976 34.78102 411 ft 168 kts 204°
2026-04-15 17:20 32.11906 34.77550 467 ft 166 kts 201°
2026-04-15 17:21 32.10828 34.77112 474 ft 169 kts 193°
2026-04-15 17:21 32.09679 34.76831 421 ft 172 kts 191°
2026-04-15 17:21 32.08506 34.76464 320 ft 175 kts 198°
2026-04-15 17:21 32.07394 34.75929 309 ft 173 kts 201°
2026-04-15 17:22 32.06299 34.75388 303 ft 172 kts 204°
2026-04-15 17:22 32.05269 34.74695 365 ft 164 kts 207°
2026-04-15 17:22 32.04194 34.74208 352 ft 168 kts 195°
2026-04-15 17:22 32.03055 34.73857 334 ft 168 kts 188°
2026-04-15 17:23 32.01929 34.73715 275 ft 166 kts 183°
2026-04-15 17:23 32.00798 34.73444 279 ft 158 kts 192°
2026-04-15 17:23 31.99796 34.73737 360 ft 157 kts 156°
2026-04-15 17:23 31.98765 34.74176 410 ft 157 kts 156°
2026-04-15 17:24 31.97764 34.74704 438 ft 156 kts 153°
2026-04-15 17:24 31.96984 34.75541 456 ft 151 kts 118°
2026-04-15 17:24 31.96404 34.76612 414 ft 156 kts 121°
2026-04-15 17:24 31.95881 34.77702 467 ft 148 kts 89°
2026-04-15 17:25 31.96463 34.78643 427 ft 153 kts 25°
2026-04-15 17:25 31.97462 34.79122 367 ft 156 kts 20°
2026-04-15 17:25 31.98484 34.79566 322 ft 156 kts 19°
2026-04-15 17:25 31.99485 34.80040 351 ft 153 kts 24°
2026-04-15 17:26 32.00295 34.80834 364 ft 153 kts 44°
2026-04-15 17:26 32.01166 34.81552 355 ft 154 kts 32°
2026-04-15 17:26 32.02039 34.82291 337 ft 154 kts 29°
2026-04-15 17:26 32.02979 34.82919 330 ft 154 kts 26°
2026-04-15 17:27 32.03838 34.83539 551 ft 135 kts 74°
2026-04-15 17:27 32.03454 34.83451 583 ft 133 kts 314°
2026-04-15 17:27 32.03721 34.84000 562 ft 140 kts 151°
2026-04-15 17:27 32.03582 34.83404 519 ft 135 kts
2026-04-15 17:28 32.04365 34.84048 519 ft 123 kts 70°
2026-04-15 17:28 32.04245 34.84009 267 ft 81 kts 70°
2026-04-15 17:28 32.04297 34.84091 229 ft 39 kts 118°
2026-04-15 17:28 32.04330 34.84189 160 ft 5 kts 85°
2026-04-15 17:29 32.04323 34.84197 149 ft 0 kts 91°
2026-04-15 17:31 32.04289 34.84045 206 ft 65 kts 216°
2026-04-15 17:31 32.03910 34.83734 573 ft 82 kts 214°
2026-04-15 17:32 32.03851 34.83115 490 ft 96 kts 316°
2026-04-15 17:32 32.04450 34.83041 496 ft 90 kts
2026-04-15 17:32 32.05078 34.83229 531 ft 106 kts 19°
2026-04-15 17:32 32.05915 34.83568 471 ft 146 kts 17°
2026-04-15 17:33 32.06881 34.84086 462 ft 157 kts 27°
2026-04-15 17:33 32.07918 34.84473 382 ft 159 kts
2026-04-15 17:33 32.09018 34.84578 448 ft 149 kts 346°
2026-04-15 17:33 32.09291 34.83490 438 ft 157 kts 274°
2026-04-15 17:34 32.09575 34.82236 427 ft 160 kts 287°
2026-04-15 17:34 32.09963 34.80989 441 ft 164 kts 288°
2026-04-15 17:34 32.10090 34.79653 348 ft 170 kts 258°
2026-04-15 17:34 32.09840 34.78292 321 ft 166 kts 259°
2026-04-15 17:35 32.09761 34.77014 594 ft 146 kts 229°
2026-04-15 17:35 32.08789 34.76487 433 ft 168 kts 194°
2026-04-15 17:35 32.07635 34.76109 293 ft 175 kts 197°
2026-04-15 17:35 32.06531 34.75560 387 ft 167 kts 211°
2026-04-15 17:36 32.05539 34.74865 276 ft 169 kts 200°
2026-04-15 17:36 32.04408 34.74432 217 ft 171 kts 196°
2026-04-15 17:36 32.03286 34.74018 219 ft 169 kts 195°
2026-04-15 17:36 32.02157 34.73688 317 ft 164 kts 191°
2026-04-15 17:37 32.01038 34.73405 369 ft 164 kts 192°
2026-04-15 17:37 31.99921 34.73122 418 ft 162 kts 174°
2026-04-15 17:37 31.98918 34.73717 437 ft 165 kts 153°
2026-04-15 17:37 31.98177 34.73978 433 ft 164 kts 161°
2026-04-15 17:38 31.97036 34.74280 366 ft 169 kts 171°
2026-04-15 17:38 31.96143 34.75072 305 ft 170 kts 120°
2026-04-15 17:38 31.96316 34.75489 292 ft 126 kts 325°
2026-04-15 17:38 31.96824 34.75350 270 ft 101 kts
2026-04-15 17:39 31.96927 34.75365 169 ft 58 kts 181°
2026-04-15 17:39 31.96874 34.75178 225 ft 45 kts 84°
2026-04-15 17:39 31.96726 34.75194 121 ft 4 kts 46°
2026-04-15 17:39 31.96739 34.75218 69 ft 1 kts
2026-04-15 17:40 31.96742 34.75217 62 ft 0 kts 12°